Wetterstation Vordersexau
Wetterdaten: Woche 30.04.18 - 06.05.18 (KW18)
Datum Zeit Temp. A. Feuchte A. Luftdruck Regen Wind Richtung Taupunkt Windchill Windben
30.04.2018 00:00 14,3 C 64 % 1000,7 hPa 0,0 l/m 38,2 km/h S 7,6 C 5,5 C 21,2 km/h
30.04.2018 01:00 13,3 C 66 % 1001,6 hPa 0,0 l/m 17,5 km/h S 7,1 C 8,3 C 9,7 km/h
30.04.2018 02:00 12,9 C 65 % 1002,0 hPa 0,0 l/m 17,5 km/h S-SO 6,5 C 7,8 C 9,7 km/h
30.04.2018 03:00 12,1 C 66 % 1002,7 hPa 0,0 l/m 7,8 km/h S-SW 5,9 C 11,2 C 4,3 km/h
30.04.2018 04:00 11,3 C 70 % 1002,7 hPa 0,0 l/m 21,4 km/h S 6,0 C 4,6 C 11,9 km/h
30.04.2018 05:00 11,1 C 73 % 1002,8 hPa 0,0 l/m 0,0 km/h S-SW 6,4 C 11,1 C 0,0 km/h
30.04.2018 06:00 11,2 C 73 % 1003,5 hPa 0,0 l/m 23,3 km/h S-SW 6,5 C 3,9 C 13,0 km/h
30.04.2018 07:00 11,4 C 73 % 1003,7 hPa 0,0 l/m 0,0 km/h S 6,7 C 11,4 C 0,0 km/h
30.04.2018 08:00 13,6 C 62 % 1003,7 hPa 0,0 l/m 18,1 km/h S-SW 6,5 C 8,5 C 10,1 km/h
30.04.2018 09:00 14,8 C 57 % 1003,6 hPa 0,0 l/m 29,2 km/h S-SW 6,4 C 7,5 C 16,2 km/h
30.04.2018 10:00 15,6 C 53 % 1003,5 hPa 0,0 l/m 24,0 km/h W 6,1 C 9,6 C 13,3 km/h
30.04.2018 11:00 17,3 C 43 % 1003,5 hPa 0,0 l/m 39,5 km/h W-SW 4,6 C 9,8 C 22,0 km/h
30.04.2018 12:00 15,9 C 47 % 1003,8 hPa 0,0 l/m 37,6 km/h W 4,6 C 7,9 C 20,9 km/h
30.04.2018 13:00 16,7 C 46 % 1004,1 hPa 0,0 l/m 11,7 km/h SW 5,0 C 14,3 C 6,5 km/h
30.04.2018 14:00 17,6 C 44 % 1003,8 hPa 0,0 l/m 24,0 km/h W 5,2 C 12,3 C 13,3 km/h
30.04.2018 15:00 17,9 C 41 % 1003,6 hPa 0,0 l/m 0,0 km/h W-SW 4,5 C 17,9 C 0,0 km/h
30.04.2018 16:00 17,8 C 38 % 1003,4 hPa 0,0 l/m 49,2 km/h W-SW 3,3 C 9,7 C 27,4 km/h
30.04.2018 17:00 17,9 C 38 % 1003,7 hPa 0,0 l/m 31,1 km/h SW 3,4 C 11,6 C 17,3 km/h
30.04.2018 18:00 16,6 C 41 % 1004,7 hPa 0,0 l/m 24,0 km/h W-SW 3,3 C 11,0 C 13,3 km/h
30.04.2018 19:00 14,9 C 47 % 1005,5 hPa 0,0 l/m 24,0 km/h SW 3,7 C 8,7 C 13,3 km/h
30.04.2018 20:00 13,5 C 53 % 1006,7 hPa 0,0 l/m 24,0 km/h S 4,1 C 6,8 C 13,3 km/h
30.04.2018 21:00 12,8 C 55 % 1007,0 hPa 0,0 l/m 22,0 km/h SW 4,0 C 6,4 C 12,2 km/h
30.04.2018 22:00 12,3 C 58 % 1007,3 hPa 0,0 l/m 21,4 km/h S-SW 4,3 C 5,9 C 11,9 km/h
30.04.2018 23:00 11,9 C 60 % 1007,7 hPa 0,0 l/m 19,4 km/h S-SW 4,4 C 5,9 C 10,8 km/h
01.05.2018 00:00 11,5 C 63 % 1008,3 hPa 0,0 l/m 24,0 km/h S 4,7 C 4,1 C 13,3 km/h
01.05.2018 01:00 11,0 C 65 % 1008,5 hPa 0,0 l/m 21,4 km/h W-SW 4,7 C 4,2 C 11,9 km/h
01.05.2018 02:00 10,8 C 67 % 1008,3 hPa 0,0 l/m 27,9 km/h W-SW 4,9 C 2,2 C 15,5 km/h
01.05.2018 03:00 10,5 C 69 % 1008,7 hPa 0,0 l/m 22,0 km/h W-SW 5,1 C 3,3 C 12,2 km/h
01.05.2018 04:00 10,3 C 70 % 1008,9 hPa 0,0 l/m 23,3 km/h W-SW 5,1 C 2,7 C 13,0 km/h
01.05.2018 05:00 9,8 C 71 % 1009,3 hPa 0,0 l/m 7,1 km/h NW 4,8 C 9,3 C 4,0 km/h
01.05.2018 06:00 9,6 C 72 % 1010,3 hPa 0,0 l/m 9,1 km/h N-NW 4,8 C 7,7 C 5,0 km/h
01.05.2018 07:00 9,0 C 70 % 1010,9 hPa 0,0 l/m 0,0 km/h N-NO 3,8 C 9,0 C 0,0 km/h
01.05.2018 08:00 8,6 C 69 % 1011,7 hPa 0,0 l/m 2,6 km/h NW 3,2 C 8,6 C 1,4 km/h
01.05.2018 09:00 9,4 C 68 % 1011,7 hPa 0,0 l/m 0,0 km/h SW 3,8 C 9,4 C 0,0 km/h
01.05.2018 10:00 10,3 C 67 % 1012,3 hPa 0,0 l/m 2,6 km/h W 4,4 C 10,3 C 1,4 km/h
01.05.2018 11:00 12,6 C 62 % 1012,0 hPa 0,0 l/m 0,0 km/h W-SW 5,5 C 12,6 C 0,0 km/h
01.05.2018 12:00 12,3 C 59 % 1011,7 hPa 0,0 l/m 0,0 km/h W-NW 4,5 C 12,3 C 0,0 km/h
01.05.2018 13:00 14,1 C 55 % 1011,9 hPa 0,0 l/m 0,0 km/h N 5,2 C 14,1 C 0,0 km/h
01.05.2018 14:00 13,8 C 55 % 1011,7 hPa 0,0 l/m 0,0 km/h SW 4,9 C 13,8 C 0,0 km/h
01.05.2018 15:00 15,4 C 52 % 1011,1 hPa 0,0 l/m 0,0 km/h N 5,6 C 15,4 C 0,0 km/h
01.05.2018 16:00 14,7 C 49 % 1010,5 hPa 0,0 l/m 0,0 km/h N-NW 4,1 C 14,7 C 0,0 km/h
01.05.2018 17:00 14,9 C 47 % 1010,4 hPa 0,0 l/m 0,0 km/h N 3,7 C 14,9 C 0,0 km/h
01.05.2018 18:00 14,1 C 49 % 1010,4 hPa 0,0 l/m 0,0 km/h N-NO 3,6 C 14,1 C 0,0 km/h
01.05.2018 19:00 13,8 C 49 % 1010,5 hPa 0,0 l/m 0,0 km/h N-NO 3,3 C 13,8 C 0,0 km/h
01.05.2018 20:00 12,8 C 52 % 1010,7 hPa 0,0 l/m 0,0 km/h N-NO 3,2 C 12,8 C 0,0 km/h
01.05.2018 21:00 11,3 C 59 % 1011,2 hPa 0,0 l/m 0,0 km/h N-NO 3,6 C 11,3 C 0,0 km/h
01.05.2018 22:00 11,1 C 60 % 1011,3 hPa 0,0 l/m 0,0 km/h N-NO 3,6 C 11,1 C 0,0 km/h
01.05.2018 23:00 10,2 C 63 % 1011,3 hPa 0,0 l/m 0,0 km/h N-NO 3,5 C 10,2 C 0,0 km/h
02.05.2018 00:00 8,4 C 68 % 1011,0 hPa 0,0 l/m 0,0 km/h N-NO 2,8 C 8,4 C 0,0 km/h
02.05.2018 01:00 7,4 C 73 % 1011,1 hPa 0,0 l/m 0,0 km/h N-NO 2,9 C 7,4 C 0,0 km/h
02.05.2018 02:00 7,9 C 74 % 1010,7 hPa 0,0 l/m 0,0 km/h N-NW 3,6 C 7,9 C 0,0 km/h
02.05.2018 03:00 8,4 C 74 % 1010,2 hPa 0,0 l/m 0,0 km/h N-NW 4,0 C 8,4 C 0,0 km/h
02.05.2018 04:00 7,9 C 77 % 1010,3 hPa 0,0 l/m 0,0 km/h N-NW 4,1 C 7,9 C 0,0 km/h
02.05.2018 05:00 8,4 C 76 % 1009,8 hPa 0,0 l/m 0,0 km/h N-NW 4,4 C 8,4 C 0,0 km/h
02.05.2018 06:00 8,2 C 76 % 1010,1 hPa 0,0 l/m 0,0 km/h N-NW 4,2 C 8,2 C 0,0 km/h
02.05.2018 07:00 8,4 C 75 % 1010,4 hPa 0,0 l/m 0,0 km/h W-NW 4,2 C 8,4 C 0,0 km/h
02.05.2018 08:00 9,2 C 75 % 1010,1 hPa 0,0 l/m 0,0 km/h W 5,0 C 9,2 C 0,0 km/h
02.05.2018 09:00 9,4 C 73 % 1009,7 hPa 0,0 l/m 0,0 km/h NW 4,8 C 9,4 C 0,0 km/h
02.05.2018 10:00 10,5 C 72 % 1009,7 hPa 0,0 l/m 0,0 km/h W-NW 5,7 C 10,5 C 0,0 km/h
02.05.2018 11:00 12,0 C 69 % 1009,2 hPa 0,0 l/m 0,0 km/h W-SW 6,5 C 12,0 C 0,0 km/h
02.05.2018 12:00 14,1 C 63 % 1008,7 hPa 0,0 l/m 2,6 km/h W-SW 7,2 C 14,1 C 1,4 km/h
02.05.2018 13:00 15,9 C 56 % 1008,0 hPa 0,0 l/m 24,0 km/h NW 7,1 C 10,0 C 13,3 km/h
02.05.2018 14:00 16,3 C 53 % 1007,8 hPa 0,0 l/m 8,4 km/h NW 6,7 C 15,3 C 4,7 km/h
02.05.2018 15:00 16,4 C 55 % 1007,3 hPa 0,0 l/m 1,3 km/h N-NW 7,3 C 16,4 C 0,7 km/h
02.05.2018 16:00 17,3 C 52 % 1007,3 hPa 0,0 l/m 14,9 km/h N-NW 7,3 C 14,0 C 8,3 km/h
02.05.2018 17:00 16,4 C 54 % 1007,6 hPa 0,0 l/m 0,0 km/h N-NW 7,1 C 16,4 C 0,0 km/h
02.05.2018 18:00 15,8 C 54 % 1007,9 hPa 0,0 l/m 0,0 km/h N-NW 6,5 C 15,8 C 0,0 km/h
02.05.2018 19:00 14,8 C 56 % 1008,4 hPa 0,0 l/m 0,0 km/h N-NW 6,1 C 14,8 C 0,0 km/h
02.05.2018 20:00 14,1 C 59 % 1008,8 hPa 0,0 l/m 0,0 km/h N-NW 6,2 C 14,1 C 0,0 km/h
02.05.2018 21:00 12,9 C 65 % 1008,8 hPa 0,0 l/m 0,0 km/h N-NW 6,5 C 12,9 C 0,0 km/h
02.05.2018 22:00 12,1 C 69 % 1009,1 hPa 0,0 l/m 0,0 km/h N-NW 6,6 C 12,1 C 0,0 km/h
02.05.2018 23:00 11,9 C 73 % 1009,3 hPa 0,0 l/m 0,0 km/h N 7,2 C 11,9 C 0,0 km/h
03.05.2018 00:00 11,3 C 78 % 1009,6 hPa 0,0 l/m 0,0 km/h O-SO 7,6 C 11,3 C 0,0 km/h
03.05.2018 01:00 10,9 C 82 % 1009,7 hPa 0,0 l/m 0,0 km/h O-SO 7,9 C 10,9 C 0,0 km/h
03.05.2018 02:00 10,9 C 83 % 1009,7 hPa 0,0 l/m 0,0 km/h O-SO 8,1 C 10,9 C 0,0 km/h
03.05.2018 03:00 10,8 C 83 % 1009,9 hPa 0,5 l/m 0,0 km/h O-SO 8,0 C 10,8 C 0,0 km/h
03.05.2018 04:00 10,5 C 84 % 1010,2 hPa 0,0 l/m 0,0 km/h O-SO 7,9 C 10,5 C 0,0 km/h
03.05.2018 05:00 10,4 C 84 % 1010,1 hPa 0,0 l/m 0,0 km/h O-SO 7,8 C 10,4 C 0,0 km/h
03.05.2018 06:00 10,4 C 84 % 1010,4 hPa 0,0 l/m 0,0 km/h O-SO 7,8 C 10,4 C 0,0 km/h
03.05.2018 07:00 10,7 C 84 % 1010,9 hPa 0,0 l/m 0,0 km/h O-SO 8,1 C 10,7 C 0,0 km/h
03.05.2018 08:00 11,2 C 84 % 1011,5 hPa 0,0 l/m 0,0 km/h O-SO 8,6 C 11,2 C 0,0 km/h
03.05.2018 09:00 11,5 C 83 % 1011,6 hPa 0,0 l/m 0,0 km/h S-SO 8,7 C 11,5 C 0,0 km/h
03.05.2018 10:00 12,1 C 82 % 1012,0 hPa 0,0 l/m 0,0 km/h N-NO 9,1 C 12,1 C 0,0 km/h
03.05.2018 11:00 13,3 C 80 % 1012,0 hPa 0,0 l/m 0,0 km/h NO 9,9 C 13,3 C 0,0 km/h
03.05.2018 12:00 14,5 C 70 % 1012,2 hPa 0,0 l/m 0,0 km/h NO 9,1 C 14,5 C 0,0 km/h
03.05.2018 13:00 15,3 C 65 % 1011,9 hPa 0,0 l/m 0,0 km/h N-NO 8,8 C 15,3 C 0,0 km/h
03.05.2018 14:00 15,6 C 61 % 1011,8 hPa 0,0 l/m 14,9 km/h N-NW 8,1 C 12,0 C 8,3 km/h
03.05.2018 15:00 16,1 C 62 % 1011,6 hPa 0,0 l/m 14,9 km/h N-NO 8,8 C 12,6 C 8,3 km/h
03.05.2018 16:00 16,1 C 61 % 1011,6 hPa 0,0 l/m 0,0 km/h N 8,6 C 16,1 C 0,0 km/h
03.05.2018 17:00 16,4 C 60 % 1011,6 hPa 0,0 l/m 3,2 km/h N 8,6 C 16,4 C 1,8 km/h
03.05.2018 18:00 17,1 C 58 % 1011,5 hPa 0,0 l/m 0,0 km/h N-NO 8,8 C 17,1 C 0,0 km/h
03.05.2018 19:00 16,4 C 61 % 1012,0 hPa 0,0 l/m 0,0 km/h N 8,9 C 16,4 C 0,0 km/h
03.05.2018 20:00 15,5 C 63 % 1012,8 hPa 0,0 l/m 0,0 km/h N 8,5 C 15,5 C 0,0 km/h
03.05.2018 21:00 14,4 C 69 % 1013,2 hPa 0,0 l/m 0,0 km/h N 8,8 C 14,4 C 0,0 km/h
03.05.2018 22:00 13,8 C 72 % 1012,9 hPa 0,0 l/m 0,0 km/h N 8,8 C 13,8 C 0,0 km/h
03.05.2018 23:00 13,1 C 75 % 1013,2 hPa 0,0 l/m 0,0 km/h N 8,8 C 13,1 C 0,0 km/h
04.05.2018 00:00 12,5 C 76 % 1013,5 hPa 0,0 l/m 0,0 km/h N 8,4 C 12,5 C 0,0 km/h
04.05.2018 01:00 12,1 C 79 % 1013,2 hPa 0,0 l/m 0,0 km/h N-NO 8,6 C 12,1 C 0,0 km/h
04.05.2018 02:00 11,1 C 79 % 1012,7 hPa 0,0 l/m 0,0 km/h O-NO 7,6 C 11,1 C 0,0 km/h
04.05.2018 03:00 9,5 C 82 % 1013,4 hPa 0,0 l/m 0,0 km/h W-SW 6,6 C 9,5 C 0,0 km/h
04.05.2018 04:00 11,2 C 78 % 1013,3 hPa 0,0 l/m 1,3 km/h W-SW 7,5 C 11,2 C 0,7 km/h
04.05.2018 05:00 13,4 C 73 % 1013,4 hPa 0,0 l/m 5,8 km/h N-NW 8,7 C 13,4 C 3,2 km/h
04.05.2018 06:00 15,2 C 69 % 1013,3 hPa 0,0 l/m 0,0 km/h O-NO 9,6 C 15,2 C 0,0 km/h
04.05.2018 07:00 17,4 C 66 % 1013,0 hPa 0,0 l/m 0,0 km/h W 11,0 C 17,4 C 0,0 km/h
04.05.2018 08:00 19,4 C 59 % 1012,7 hPa 0,0 l/m 7,1 km/h W 11,2 C 19,1 C 4,0 km/h
04.05.2018 09:00 20,1 C 57 % 1012,7 hPa 0,0 l/m 5,8 km/h W 11,3 C 20,1 C 3,2 km/h
04.05.2018 10:00 20,5 C 55 % 1012,3 hPa 0,0 l/m 1,9 km/h NO 11,1 C 20,5 C 1,1 km/h
04.05.2018 11:00 21,9 C 54 % 1012,3 hPa 0,0 l/m 0,0 km/h N 12,2 C 21,9 C 0,0 km/h
04.05.2018 12:00 22,1 C 53 % 1012,0 hPa 0,0 l/m 1,9 km/h N 12,1 C 22,1 C 1,1 km/h
04.05.2018 13:00 22,1 C 53 % 1012,0 hPa 0,0 l/m 0,0 km/h N-NO 12,1 C 22,1 C 0,0 km/h
04.05.2018 14:00 21,7 C 54 % 1012,3 hPa 0,0 l/m 1,3 km/h N 12,0 C 21,7 C 0,7 km/h
04.05.2018 15:00 21,3 C 55 % 1012,6 hPa 0,0 l/m 6,5 km/h N-NO 11,9 C 21,3 C 3,6 km/h
04.05.2018 16:00 20,8 C 56 % 1013,2 hPa 0,0 l/m 0,0 km/h N-NO 11,7 C 20,8 C 0,0 km/h
04.05.2018 17:00 20,2 C 56 % 1013,5 hPa 0,0 l/m 13,0 km/h N-NO 11,1 C 18,0 C 7,2 km/h
04.05.2018 18:00 19,2 C 56 % 1014,3 hPa 0,0 l/m 3,2 km/h NO 10,2 C 19,2 C 1,8 km/h
04.05.2018 19:00 18,3 C 57 % 1014,4 hPa 0,0 l/m 7,1 km/h N-NO 9,6 C 18,0 C 4,0 km/h
04.05.2018 20:00 16,9 C 58 % 1015,1 hPa 0,0 l/m 0,0 km/h N 8,6 C 16,9 C 0,0 km/h
04.05.2018 21:00 16,8 C 56 % 1015,1 hPa 0,0 l/m 0,0 km/h N-NO 8,0 C 16,8 C 0,0 km/h
04.05.2018 22:00 15,8 C 58 % 1015,4 hPa 0,0 l/m 0,0 km/h N-NO 7,6 C 15,8 C 0,0 km/h
04.05.2018 23:00 15,4 C 59 % 1014,8 hPa 0,0 l/m 0,0 km/h SO 7,4 C 15,4 C 0,0 km/h
05.05.2018 00:00 13,6 C 63 % 1014,8 hPa 0,0 l/m 0,0 km/h SO 6,7 C 13,6 C 0,0 km/h
05.05.2018 01:00 13,8 C 63 % 1014,8 hPa 0,0 l/m 0,0 km/h N-NO 6,9 C 13,8 C 0,0 km/h
05.05.2018 02:00 15,4 C 59 % 1014,8 hPa 0,0 l/m 0,0 km/h SO 7,4 C 15,4 C 0,0 km/h
05.05.2018 03:00 13,6 C 63 % 1014,8 hPa 0,0 l/m 0,0 km/h NW 6,7 C 13,6 C 0,0 km/h
05.05.2018 04:00 13,8 C 63 % 1014,8 hPa 0,0 l/m 0,0 km/h S-SO 6,9 C 13,8 C 0,0 km/h
05.05.2018 05:00 11,5 C 69 % 1015,0 hPa 0,0 l/m 0,0 km/h O-NO 6,0 C 11,5 C 0,0 km/h
05.05.2018 06:00 10,8 C 73 % 1015,2 hPa 0,0 l/m 0,0 km/h SW 6,2 C 10,8 C 0,0 km/h
05.05.2018 07:00 12,3 C 73 % 1015,9 hPa 0,0 l/m 0,0 km/h W-SW 7,6 C 12,3 C 0,0 km/h
05.05.2018 08:00 14,4 C 69 % 1015,8 hPa 0,0 l/m 0,0 km/h W 8,8 C 14,4 C 0,0 km/h
05.05.2018 09:00 16,6 C 65 % 1015,9 hPa 0,0 l/m 0,0 km/h S-SO 10,0 C 16,6 C 0,0 km/h
05.05.2018 10:00 19,1 C 61 % 1015,2 hPa 0,0 l/m 0,0 km/h N-NO 11,4 C 19,1 C 0,0 km/h
05.05.2018 11:00 22,2 C 56 % 1014,7 hPa 0,0 l/m 4,5 km/h N-NO 13,0 C 22,2 C 2,5 km/h
05.05.2018 12:00 23,6 C 50 % 1014,6 hPa 0,0 l/m 7,1 km/h NO 12,6 C 23,4 C 4,0 km/h
05.05.2018 13:00 24,1 C 49 % 1014,6 hPa 0,0 l/m 7,8 km/h O-NO 12,7 C 23,7 C 4,3 km/h
05.05.2018 14:00 24,4 C 48 % 1014,5 hPa 0,0 l/m 16,2 km/h N-NO 12,7 C 22,4 C 9,0 km/h
05.05.2018 15:00 24,6 C 48 % 1014,3 hPa 0,0 l/m 7,8 km/h N-NO 12,8 C 24,2 C 4,3 km/h
05.05.2018 16:00 26,1 C 45 % 1013,9 hPa 0,0 l/m 0,0 km/h NO 13,2 C 26,1 C 0,0 km/h
05.05.2018 17:00 25,6 C 45 % 1013,9 hPa 0,0 l/m 22,0 km/h NO 12,8 C 23,2 C 12,2 km/h
05.05.2018 18:00 25,2 C 47 % 1014,3 hPa 0,0 l/m 4,5 km/h NO 13,1 C 25,2 C 2,5 km/h
05.05.2018 19:00 24,4 C 47 % 1014,6 hPa 0,0 l/m 0,0 km/h NO 12,3 C 24,4 C 0,0 km/h
05.05.2018 20:00 22,4 C 51 % 1015,1 hPa 0,0 l/m 0,0 km/h NO 11,8 C 22,4 C 0,0 km/h
05.05.2018 21:00 21,0 C 54 % 1015,6 hPa 0,0 l/m 0,0 km/h O-SO 11,3 C 21,0 C 0,0 km/h
05.05.2018 22:00 17,9 C 63 % 1016,2 hPa 0,0 l/m 0,0 km/h O-NO 10,8 C 17,9 C 0,0 km/h
05.05.2018 23:00 17,0 C 66 % 1016,2 hPa 0,0 l/m 0,0 km/h N 10,6 C 17,0 C 0,0 km/h
06.05.2018 00:00 16,0 C 69 % 1015,8 hPa 0,0 l/m 0,0 km/h O-NO 10,3 C 16,0 C 0,0 km/h
06.05.2018 01:00 14,5 C 72 % 1015,7 hPa 0,0 l/m 0,0 km/h NO 9,5 C 14,5 C 0,0 km/h
06.05.2018 02:00 13,6 C 76 % 1015,9 hPa 0,0 l/m 0,0 km/h O-SO 9,4 C 13,6 C 0,0 km/h
06.05.2018 03:00 12,7 C 78 % 1016,3 hPa 0,0 l/m 0,0 km/h O-NO 9,0 C 12,7 C 0,0 km/h
06.05.2018 04:00 12,0 C 80 % 1016,5 hPa 0,0 l/m 0,0 km/h O-SO 8,7 C 12,0 C 0,0 km/h
06.05.2018 05:00 11,2 C 81 % 1016,6 hPa 0,0 l/m 0,0 km/h O-SO 8,1 C 11,2 C 0,0 km/h
06.05.2018 06:00 11,3 C 81 % 1017,0 hPa 0,0 l/m 0,0 km/h O-SO 8,2 C 11,3 C 0,0 km/h
06.05.2018 07:00 13,6 C 82 % 1017,5 hPa 0,0 l/m 0,0 km/h W-SW 10,6 C 13,6 C 0,0 km/h
06.05.2018 08:00 15,8 C 75 % 1017,5 hPa 0,0 l/m 0,0 km/h W-SW 11,4 C 15,8 C 0,0 km/h
06.05.2018 09:00 18,3 C 70 % 1017,4 hPa 0,0 l/m 0,0 km/h NO 12,7 C 18,3 C 0,0 km/h
06.05.2018 10:00 21,9 C 59 % 1016,8 hPa 0,0 l/m 0,0 km/h W-SW 13,5 C 21,9 C 0,0 km/h
06.05.2018 11:00 23,4 C 54 % 1016,1 hPa 0,0 l/m 0,0 km/h N 13,6 C 23,4 C 0,0 km/h
06.05.2018 12:00 25,6 C 48 % 1015,6 hPa 0,0 l/m 9,1 km/h N 13,8 C 25,0 C 5,0 km/h
06.05.2018 13:00 26,8 C 42 % 1014,7 hPa 0,0 l/m 18,8 km/h N 12,8 C 25,1 C 10,4 km/h
06.05.2018 14:00 27,5 C 41 % 1014,2 hPa 0,0 l/m 0,0 km/h N 13,1 C 27,5 C 0,0 km/h
06.05.2018 15:00 27,6 C 40 % 1013,6 hPa 0,0 l/m 25,3 km/h NO 12,8 C 25,7 C 14,0 km/h
06.05.2018 16:00 27,8 C 40 % 1013,6 hPa 0,0 l/m 15,6 km/h N-NO 12,9 C 26,6 C 8,6 km/h
06.05.2018 17:00 27,3 C 39 % 1013,6 hPa 0,0 l/m 2,6 km/h N-NO 12,1 C 27,3 C 1,4 km/h
06.05.2018 18:00 26,8 C 37 % 1013,4 hPa 0,0 l/m 0,0 km/h NO 10,9 C 26,8 C 0,0 km/h
06.05.2018 19:00 24,9 C 40 % 1013,5 hPa 0,0 l/m 0,0 km/h N-NO 10,4 C 24,9 C 0,0 km/h
06.05.2018 20:00 22,8 C 42 % 1013,9 hPa 0,0 l/m 0,0 km/h NO 9,2 C 22,8 C 0,0 km/h
06.05.2018 21:00 21,2 C 45 % 1014,5 hPa 0,0 l/m 0,0 km/h NO 8,8 C 21,2 C 0,0 km/h
06.05.2018 22:00 20,6 C 44 % 1014,4 hPa 0,0 l/m 0,0 km/h O-SO 7,9 C 20,6 C 0,0 km/h
06.05.2018 23:00 18,4 C 48 % 1014,6 hPa 0,0 l/m 0,0 km/h O-SO 7,2 C 18,4 C 0,0 km/h
Min-Datum _ 02.05.18 06.05.18 30.04.18 - 30.04.18 - 02.05.18 01.05.18 30.04.18
_ Min-Zeit 01:53 18:53 00:53 - 05:53 - 00:53 02:53 05:53
Minimum _ 7,4 C 37 % 1000,7 hPa - 0,0 km/h - 2,8 C 2,2 C 0,0 km/h
Max-Datum _ 06.05.18 03.05.18 06.05.18 03.05.18 30.04.18 - 06.05.18 06.05.18 30.04.18
_ Max-Zeit 16:53 04:53 07:53 03:53 16:53 - 12:53 14:53 16:53
Maximum _ 27,8 C 84 % 1017,5 hPa 0,5 l/m 49,2 km/h
W-SW
- 13,8 C 27,5 C 27,4 km/h
W-SW
Durchschnitt _ 15,4 C 62 % 1011,3 hPa #0,5 l/m 5,6 km/h N-NO 7,8 C 14,2 C 3,1 km/h
www.sexauwetter.de